createdAt,value
2023-03-17T00:01:35.822Z,61.24
2023-03-17T00:04:02.048Z,61.09
2023-03-17T00:06:28.212Z,61.09
2023-03-17T00:08:54.324Z,60.93
2023-03-17T00:11:20.458Z,61.29
2023-03-17T00:13:46.642Z,61.22
2023-03-17T00:16:12.797Z,60.91
2023-03-17T00:18:38.959Z,61.06
2023-03-17T00:21:05.079Z,60.87
2023-03-17T00:23:31.174Z,60.85
2023-03-17T00:25:57.326Z,60.85
2023-03-17T00:28:23.525Z,61.08
2023-03-17T00:30:49.632Z,61.10
2023-03-17T00:33:15.823Z,60.80
2023-03-17T00:35:42.080Z,61.00
2023-03-17T00:38:08.218Z,60.98
2023-03-17T00:40:34.365Z,60.92
2023-03-17T00:43:00.470Z,60.95
2023-03-17T00:45:26.664Z,61.08
2023-03-17T00:47:52.797Z,60.82
2023-03-17T00:50:18.975Z,61.03
2023-03-17T00:52:45.098Z,61.08
2023-03-17T00:55:11.212Z,61.00
2023-03-17T00:57:37.415Z,60.68
2023-03-17T01:00:03.552Z,60.84
2023-03-17T01:02:29.722Z,60.86
2023-03-17T01:05:05.756Z,60.96
2023-03-17T01:07:32.567Z,60.88
2023-03-17T01:09:58.709Z,61.23
2023-03-17T01:12:24.810Z,60.82
2023-03-17T01:14:50.907Z,61.22
2023-03-17T01:17:17.125Z,60.81
2023-03-17T01:19:43.302Z,61.05
2023-03-17T01:22:09.439Z,61.05
2023-03-17T01:24:35.610Z,60.97
2023-03-17T01:27:01.758Z,60.88
2023-03-17T01:29:27.945Z,60.79
2023-03-17T01:31:54.139Z,61.15
2023-03-17T01:34:20.353Z,61.08
2023-03-17T01:36:46.473Z,60.88
2023-03-17T01:39:12.799Z,60.83
2023-03-17T01:41:38.956Z,60.81
2023-03-17T01:44:05.092Z,60.98
2023-03-17T01:46:31.225Z,61.07
2023-03-17T01:48:57.321Z,60.78
2023-03-17T01:51:23.434Z,60.90
2023-03-17T01:53:49.547Z,60.67
2023-03-17T01:56:15.671Z,60.94
2023-03-17T01:58:41.805Z,60.91
2023-03-17T02:01:08.234Z,60.79
2023-03-17T02:03:34.351Z,60.77
2023-03-17T02:06:00.509Z,60.66
2023-03-17T02:08:26.631Z,60.83
2023-03-17T02:10:52.800Z,60.59
2023-03-17T02:13:18.924Z,60.59
2023-03-17T02:15:45.060Z,60.54
2023-03-17T02:18:13.350Z,60.66
2023-03-17T02:20:39.489Z,60.77
2023-03-17T02:23:05.694Z,60.65
2023-03-17T02:25:31.812Z,60.78
2023-03-17T02:27:57.915Z,60.49
2023-03-17T02:30:24.100Z,60.58
2023-03-17T02:32:50.285Z,60.75
2023-03-17T02:35:16.435Z,60.57
2023-03-17T02:37:42.565Z,60.63
2023-03-17T02:40:08.675Z,60.60
2023-03-17T02:42:34.796Z,60.54
2023-03-17T02:45:01.477Z,60.40
2023-03-17T02:47:27.656Z,60.48
2023-03-17T02:49:53.768Z,60.61
2023-03-17T02:52:19.927Z,60.67
2023-03-17T02:54:46.050Z,60.61
2023-03-17T02:57:12.187Z,60.40
2023-03-17T02:59:38.352Z,60.37
2023-03-17T03:02:04.481Z,60.53
2023-03-17T03:04:30.605Z,60.80
2023-03-17T03:06:56.836Z,60.39
2023-03-17T03:09:22.998Z,60.47
2023-03-17T03:11:49.141Z,60.68
2023-03-17T03:14:15.251Z,60.36
2023-03-17T03:16:41.412Z,60.41
2023-03-17T03:19:07.564Z,60.38
2023-03-17T03:21:33.812Z,60.54
2023-03-17T03:23:59.954Z,60.51
2023-03-17T03:26:26.086Z,60.80
2023-03-17T03:28:52.220Z,60.51
2023-03-17T03:31:18.457Z,60.41
2023-03-17T03:33:44.609Z,60.32
2023-03-17T03:36:10.815Z,60.48
2023-03-17T03:38:37.029Z,60.51
2023-03-17T03:41:03.169Z,60.60
2023-03-17T03:43:29.295Z,60.58
2023-03-17T03:45:55.381Z,60.58
2023-03-17T03:48:21.493Z,60.41
2023-03-17T03:50:47.600Z,60.50
2023-03-17T03:53:13.744Z,60.46
2023-03-17T03:55:39.830Z,60.48
2023-03-17T03:58:05.971Z,60.74
2023-03-17T04:00:32.659Z,60.43
2023-03-17T04:02:59.009Z,60.46
2023-03-17T04:05:25.178Z,60.71
2023-03-17T04:07:51.278Z,60.44
2023-03-17T04:10:17.465Z,60.69
2023-03-17T04:12:43.624Z,60.46
2023-03-17T04:15:09.801Z,60.48
2023-03-17T04:17:35.932Z,60.62
2023-03-17T04:20:02.141Z,60.39
2023-03-17T04:22:28.343Z,60.66
2023-03-17T04:24:54.450Z,60.56
2023-03-17T04:27:21.581Z,60.59
2023-03-17T04:29:47.686Z,60.68
2023-03-17T04:32:13.795Z,60.63
2023-03-17T04:34:39.919Z,60.62
2023-03-17T04:37:06.104Z,60.62
2023-03-17T04:39:32.218Z,60.51
2023-03-17T04:41:58.401Z,60.51
2023-03-17T04:44:24.559Z,60.53
2023-03-17T04:46:50.650Z,60.66
2023-03-17T04:49:16.819Z,60.66
2023-03-17T04:51:42.970Z,60.44
2023-03-17T04:54:09.088Z,60.50
2023-03-17T04:56:35.208Z,60.35
2023-03-17T04:59:01.420Z,60.40
2023-03-17T05:01:27.632Z,60.68
2023-03-17T05:03:53.919Z,60.48
2023-03-17T05:06:20.125Z,60.49
2023-03-17T05:08:46.246Z,60.77
2023-03-17T05:11:12.463Z,60.78
2023-03-17T05:13:38.569Z,60.51
2023-03-17T05:16:04.766Z,60.60
2023-03-17T05:18:30.912Z,60.49
2023-03-17T05:20:57.109Z,60.63
2023-03-17T05:23:23.239Z,60.49
2023-03-17T05:25:49.437Z,60.51
2023-03-17T05:28:15.621Z,60.33
2023-03-17T05:30:41.791Z,60.27
2023-03-17T05:33:08.468Z,60.37
2023-03-17T05:35:34.796Z,60.61
2023-03-17T05:38:00.971Z,60.47
2023-03-17T05:40:27.182Z,60.35
2023-03-17T05:42:53.389Z,60.40
2023-03-17T05:45:19.584Z,60.38
2023-03-17T05:47:45.803Z,60.39
2023-03-17T05:50:12.000Z,60.40
2023-03-17T05:52:38.131Z,60.53
2023-03-17T05:55:04.347Z,60.33
2023-03-17T05:57:30.533Z,60.36
2023-03-17T05:59:56.745Z,60.35
2023-03-17T06:02:22.999Z,60.36
2023-03-17T06:04:49.268Z,60.27
2023-03-17T06:07:15.450Z,60.56
2023-03-17T06:09:41.624Z,60.42
2023-03-17T06:12:07.791Z,60.33
2023-03-17T06:14:33.977Z,60.34
2023-03-17T06:17:00.139Z,60.68
2023-03-17T06:19:26.233Z,60.49
2023-03-17T06:21:52.354Z,60.54
2023-03-17T06:24:18.572Z,60.44
2023-03-17T06:26:44.751Z,60.30
2023-03-17T06:29:10.875Z,60.33
2023-03-17T06:31:37.108Z,60.68
2023-03-17T06:34:03.348Z,60.29
2023-03-17T06:36:29.588Z,60.48
2023-03-17T06:38:55.796Z,60.48
2023-03-17T06:41:22.009Z,60.54
2023-03-17T06:43:48.148Z,60.31
2023-03-17T06:46:14.396Z,60.69
2023-03-17T06:48:40.561Z,60.62
2023-03-17T06:51:06.745Z,60.41
2023-03-17T06:53:32.963Z,60.54
2023-03-17T06:55:59.076Z,60.29
2023-03-17T06:58:25.280Z,60.45
2023-03-17T07:00:51.482Z,60.44
2023-03-17T07:03:17.700Z,60.39
2023-03-17T07:05:43.806Z,60.29
2023-03-17T07:08:10.017Z,60.27
2023-03-17T07:10:36.221Z,60.51
2023-03-17T07:13:02.372Z,60.20
2023-03-17T07:15:28.753Z,60.22
2023-03-17T07:17:55.055Z,60.37
2023-03-17T07:20:21.187Z,60.17
2023-03-17T07:22:47.484Z,60.23
2023-03-17T07:25:13.707Z,60.47
2023-03-17T07:27:40.005Z,60.62
2023-03-17T07:30:06.236Z,60.57
2023-03-17T07:32:32.421Z,60.27
2023-03-17T07:34:58.719Z,60.21
2023-03-17T07:37:25.119Z,60.36
2023-03-17T07:39:51.274Z,60.25
2023-03-17T07:42:17.494Z,60.28
2023-03-17T07:44:43.768Z,60.32
2023-03-17T07:47:09.971Z,60.20
2023-03-17T07:49:41.718Z,60.52
2023-03-17T07:52:08.450Z,60.20
2023-03-17T07:54:35.556Z,60.51
2023-03-17T07:57:01.746Z,60.36
2023-03-17T07:59:28.622Z,60.53
2023-03-17T08:01:54.876Z,60.54
2023-03-17T08:04:21.053Z,60.22
2023-03-17T08:06:47.239Z,60.31
2023-03-17T08:09:13.354Z,60.21
2023-03-17T08:11:39.578Z,60.23
2023-03-17T08:14:05.788Z,60.18
2023-03-17T08:16:32.044Z,60.36
2023-03-17T08:18:58.267Z,60.44
2023-03-17T08:21:24.408Z,60.43
2023-03-17T08:23:50.597Z,60.22
2023-03-17T08:26:16.710Z,60.23
2023-03-17T08:28:43.266Z,60.31
2023-03-17T08:31:12.205Z,60.35
2023-03-17T08:33:38.641Z,60.58
2023-03-17T08:36:04.926Z,60.28
2023-03-17T08:38:31.064Z,60.36
2023-03-17T08:40:57.163Z,60.60
2023-03-17T08:43:23.470Z,60.45
2023-03-17T08:45:49.718Z,60.29
2023-03-17T08:48:15.915Z,60.20
2023-03-17T08:50:42.128Z,60.28
2023-03-17T08:53:08.233Z,60.50
2023-03-17T08:55:34.441Z,60.52
2023-03-17T08:58:02.596Z,60.50
2023-03-17T09:00:28.823Z,60.28
2023-03-17T09:02:55.043Z,60.40
2023-03-17T09:05:21.184Z,60.39
2023-03-17T09:07:47.329Z,60.52
2023-03-17T09:10:13.552Z,60.32
2023-03-17T09:12:42.522Z,60.15
2023-03-17T09:15:08.737Z,60.30
2023-03-17T09:17:34.928Z,60.42
2023-03-17T09:20:01.055Z,60.32
2023-03-17T09:22:27.304Z,60.25
2023-03-17T09:24:53.468Z,60.46
2023-03-17T09:27:19.674Z,60.62
2023-03-17T09:29:45.796Z,60.26
2023-03-17T09:32:11.901Z,60.29
2023-03-17T09:34:38.098Z,60.22
2023-03-17T09:37:04.242Z,60.29
2023-03-17T09:39:30.414Z,60.44
2023-03-17T09:41:56.540Z,60.65
2023-03-17T09:44:22.645Z,60.31
2023-03-17T09:46:48.899Z,60.36
2023-03-17T09:49:15.157Z,60.23
2023-03-17T09:51:41.367Z,60.55
2023-03-17T09:54:07.482Z,60.28
2023-03-17T09:56:33.706Z,60.30
2023-03-17T09:58:59.939Z,60.62
2023-03-17T10:01:26.133Z,60.68
2023-03-17T10:03:52.272Z,60.43
2023-03-17T10:06:18.419Z,60.51
2023-03-17T10:08:44.558Z,60.45
2023-03-17T10:11:10.869Z,60.35
2023-03-17T10:13:37.023Z,60.65
2023-03-17T10:16:03.163Z,60.64
2023-03-17T10:18:29.303Z,60.34
2023-03-17T10:20:55.403Z,60.54
2023-03-17T10:23:21.525Z,60.37
2023-03-17T10:25:47.668Z,60.50
2023-03-17T10:28:13.775Z,60.34
2023-03-17T10:30:39.890Z,60.43
2023-03-17T10:33:06.136Z,60.42
2023-03-17T10:35:32.775Z,60.58
2023-03-17T10:38:13.725Z,60.75
2023-03-17T10:40:40.704Z,60.55
2023-03-17T10:43:06.878Z,60.67
2023-03-17T10:45:33.002Z,60.53
2023-03-17T10:47:59.116Z,60.45
2023-03-17T10:50:25.321Z,60.72
2023-03-17T10:52:51.421Z,60.38
2023-03-17T10:55:20.434Z,60.44
2023-03-17T10:57:46.582Z,60.58
2023-03-17T11:00:12.722Z,60.64
2023-03-17T11:02:38.839Z,60.40
2023-03-17T11:05:04.958Z,60.74
2023-03-17T11:07:31.069Z,60.48
2023-03-17T11:09:57.463Z,60.37
2023-03-17T11:12:23.703Z,60.53
2023-03-17T11:14:49.879Z,60.45
2023-03-17T11:17:16.008Z,60.57
2023-03-17T11:19:42.246Z,60.67
2023-03-17T11:22:08.401Z,60.72
2023-03-17T11:24:34.543Z,60.67
2023-03-17T11:27:00.779Z,60.49
2023-03-17T11:29:27.036Z,60.33
2023-03-17T11:31:56.182Z,60.69
2023-03-17T11:34:22.358Z,60.69
2023-03-17T11:36:48.515Z,60.55
2023-03-17T11:39:14.692Z,60.36
2023-03-17T11:41:40.876Z,60.51
2023-03-17T11:44:07.097Z,60.37
2023-03-17T11:46:33.484Z,60.45
2023-03-17T11:48:59.612Z,60.67
2023-03-17T11:51:25.820Z,60.64
2023-03-17T11:53:51.944Z,60.52
2023-03-17T11:56:18.077Z,60.36
2023-03-17T11:58:44.241Z,60.53
2023-03-17T12:01:10.461Z,60.34
2023-03-17T12:03:36.692Z,60.60
2023-03-17T12:06:02.939Z,60.73
2023-03-17T12:08:29.106Z,60.59
2023-03-17T12:10:55.225Z,60.35
2023-03-17T12:13:21.547Z,60.33
2023-03-17T12:15:48.332Z,60.73
2023-03-17T12:18:14.522Z,60.59
2023-03-17T12:20:40.706Z,60.37
2023-03-17T12:23:06.946Z,60.79
2023-03-17T12:25:33.117Z,60.54
2023-03-17T12:27:59.247Z,60.66
2023-03-17T12:30:25.443Z,60.47
2023-03-17T12:32:51.634Z,60.49
2023-03-17T12:35:17.894Z,60.77
2023-03-17T12:37:44.075Z,60.86
2023-03-17T12:40:10.211Z,60.66
2023-03-17T12:42:36.352Z,60.72
2023-03-17T12:45:02.645Z,60.49
2023-03-17T12:47:28.734Z,60.50
2023-03-17T12:49:54.949Z,60.57
2023-03-17T12:52:22.054Z,60.70
2023-03-17T12:54:48.264Z,60.46
2023-03-17T12:57:14.555Z,60.54
2023-03-17T12:59:40.827Z,60.60
2023-03-17T13:02:06.966Z,60.56
2023-03-17T13:04:33.126Z,60.77
2023-03-17T13:06:59.339Z,60.60
2023-03-17T13:09:25.540Z,60.60
2023-03-17T13:11:51.753Z,60.62
2023-03-17T13:14:18.021Z,60.77
2023-03-17T13:16:44.225Z,60.74
2023-03-17T13:19:10.393Z,60.78
2023-03-17T13:21:36.751Z,60.70
2023-03-17T13:24:03.026Z,60.67
2023-03-17T13:26:29.171Z,60.81
2023-03-17T13:28:55.884Z,60.90
2023-03-17T13:31:22.119Z,61.01
2023-03-17T13:33:48.297Z,60.82
2023-03-17T13:36:14.537Z,60.91
2023-03-17T13:38:40.783Z,60.71
2023-03-17T13:41:06.907Z,60.67
2023-03-17T13:43:33.148Z,60.77
2023-03-17T13:45:59.520Z,60.73
2023-03-17T13:48:25.716Z,60.84
2023-03-17T13:50:51.949Z,60.83
2023-03-17T13:53:18.108Z,60.65
2023-03-17T13:55:44.261Z,61.00
2023-03-17T13:58:11.985Z,60.88
2023-03-17T14:00:38.373Z,60.92
2023-03-17T14:03:04.564Z,60.78
2023-03-17T14:05:30.861Z,60.78
2023-03-17T14:07:57.176Z,61.01
2023-03-17T14:10:23.342Z,60.91
2023-03-17T14:12:51.163Z,60.65
2023-03-17T14:15:17.559Z,61.06
2023-03-17T14:17:43.726Z,60.95
2023-03-17T14:20:09.928Z,61.06
2023-03-17T14:22:36.102Z,60.82
2023-03-17T14:25:02.298Z,60.81
2023-03-17T14:27:28.528Z,60.78
2023-03-17T14:29:54.634Z,61.09
2023-03-17T14:32:20.752Z,60.72
2023-03-17T14:34:46.872Z,61.06
2023-03-17T14:37:13.023Z,60.83
2023-03-17T14:39:39.264Z,61.03
2023-03-17T14:42:05.377Z,60.80
2023-03-17T14:44:31.478Z,60.78
2023-03-17T14:46:57.608Z,60.80
2023-03-17T14:49:24.042Z,61.19
2023-03-17T14:51:50.228Z,61.15
2023-03-17T14:54:16.336Z,60.97
2023-03-17T14:56:42.461Z,60.91
2023-03-17T14:59:08.649Z,61.19
2023-03-17T15:01:34.826Z,60.97
2023-03-17T15:04:00.994Z,60.84
2023-03-17T15:06:27.097Z,61.11
2023-03-17T15:08:53.199Z,60.93
2023-03-17T15:11:19.342Z,61.05
2023-03-17T15:13:45.435Z,60.88
2023-03-17T15:16:11.538Z,60.97
2023-03-17T15:18:37.666Z,60.97
2023-03-17T15:21:03.830Z,61.18
2023-03-17T15:23:29.966Z,61.23
2023-03-17T15:25:56.179Z,61.07
2023-03-17T15:28:22.266Z,61.11
2023-03-17T15:30:48.929Z,60.97
2023-03-17T15:33:15.343Z,61.03
2023-03-17T15:35:41.624Z,60.90
2023-03-17T15:38:07.778Z,60.93
2023-03-17T15:40:33.975Z,61.13
2023-03-17T15:43:00.212Z,60.95
2023-03-17T15:45:26.398Z,61.04
2023-03-17T15:47:52.596Z,60.92
2023-03-17T15:50:18.782Z,60.97
2023-03-17T15:52:44.901Z,60.99
2023-03-17T15:55:11.094Z,61.16
2023-03-17T15:57:37.308Z,61.22
2023-03-17T16:00:03.531Z,61.13
2023-03-17T16:02:29.744Z,61.24
2023-03-17T16:04:55.943Z,61.33
2023-03-17T16:07:22.147Z,61.25
2023-03-17T16:09:48.453Z,61.12
2023-03-17T16:12:14.610Z,61.27
2023-03-17T16:14:40.880Z,61.21
2023-03-17T16:17:07.194Z,61.10
2023-03-17T16:19:33.408Z,61.29
2023-03-17T16:21:59.722Z,61.04
2023-03-17T16:24:25.946Z,61.02
2023-03-17T16:26:52.151Z,61.17
2023-03-17T16:29:18.455Z,61.06
2023-03-17T16:31:44.666Z,61.00
2023-03-17T16:34:10.862Z,61.15
2023-03-17T16:36:36.981Z,61.13
2023-03-17T16:39:03.206Z,60.88
2023-03-17T16:41:29.307Z,61.32
2023-03-17T16:43:55.442Z,60.91
2023-03-17T16:46:21.646Z,61.09
2023-03-17T16:48:47.822Z,61.24
2023-03-17T16:51:14.005Z,61.28
2023-03-17T16:53:40.145Z,60.90
2023-03-17T16:56:06.282Z,61.19
2023-03-17T16:58:32.461Z,61.04
2023-03-17T17:00:58.590Z,61.22
2023-03-17T17:03:24.678Z,61.10
2023-03-17T17:05:50.797Z,60.90
2023-03-17T17:08:16.989Z,61.24
2023-03-17T17:10:43.242Z,61.17
2023-03-17T17:13:09.371Z,60.83
2023-03-17T17:15:35.544Z,60.98
2023-03-17T17:18:01.656Z,61.23
2023-03-17T17:20:27.838Z,61.35
2023-03-17T17:22:53.960Z,61.30
2023-03-17T17:25:20.052Z,61.07
2023-03-17T17:27:46.166Z,61.24
2023-03-17T17:30:12.306Z,61.21
2023-03-17T17:32:38.426Z,60.99
2023-03-17T17:35:04.576Z,61.19
2023-03-17T17:37:30.726Z,61.28
2023-03-17T17:39:56.852Z,61.06
2023-03-17T17:42:22.976Z,61.14
2023-03-17T17:44:49.111Z,60.98
2023-03-17T17:47:15.196Z,61.39
2023-03-17T17:49:41.286Z,60.91
2023-03-17T17:52:07.387Z,60.95
2023-03-17T17:54:33.493Z,61.38
2023-03-17T17:56:59.602Z,60.93
2023-03-17T17:59:25.714Z,61.24
2023-03-17T18:01:51.819Z,61.34
2023-03-17T18:04:17.929Z,61.35
2023-03-17T18:06:44.071Z,61.37
2023-03-17T18:09:10.184Z,61.02
2023-03-17T18:11:36.345Z,61.16
2023-03-17T18:14:02.500Z,61.19
2023-03-17T18:16:28.685Z,61.20
2023-03-17T18:18:54.833Z,61.21
2023-03-17T18:21:20.987Z,61.19
2023-03-17T18:23:48.804Z,61.06
2023-03-17T18:26:14.938Z,61.21
2023-03-17T18:28:41.063Z,61.07
2023-03-17T18:31:07.179Z,61.23
2023-03-17T18:33:33.296Z,60.86
2023-03-17T18:35:59.897Z,61.16
2023-03-17T18:38:26.094Z,61.17
2023-03-17T18:40:52.188Z,61.24
2023-03-17T18:43:18.330Z,61.21
2023-03-17T18:45:44.592Z,61.22
2023-03-17T18:48:10.730Z,61.20
2023-03-17T18:50:36.839Z,61.00
2023-03-17T18:53:02.934Z,61.00
2023-03-17T18:55:29.091Z,61.18
2023-03-17T18:57:56.164Z,61.17
2023-03-17T19:00:22.288Z,61.18
2023-03-17T19:02:48.542Z,61.27
2023-03-17T19:05:14.737Z,61.17
2023-03-17T19:07:40.908Z,61.11
2023-03-17T19:10:07.045Z,61.25
2023-03-17T19:12:33.178Z,60.96
2023-03-17T19:14:59.342Z,61.15
2023-03-17T19:17:25.460Z,61.03
2023-03-17T19:19:51.794Z,61.19
2023-03-17T19:22:17.915Z,61.15
2023-03-17T19:24:44.011Z,60.86
2023-03-17T19:27:10.131Z,61.26
2023-03-17T19:29:36.244Z,61.16
2023-03-17T19:32:02.375Z,61.00
2023-03-17T19:34:28.554Z,61.23
2023-03-17T19:36:54.744Z,61.18
2023-03-17T19:39:20.833Z,61.00
2023-03-17T19:41:47.675Z,60.98
2023-03-17T19:44:13.798Z,60.93
2023-03-17T19:46:39.901Z,60.94
2023-03-17T19:49:06.017Z,61.10
2023-03-17T19:51:32.110Z,61.09
2023-03-17T19:53:58.208Z,61.00
2023-03-17T19:56:24.351Z,61.06
2023-03-17T19:58:50.451Z,60.83
2023-03-17T20:01:16.675Z,60.99
2023-03-17T20:03:43.052Z,60.94
2023-03-17T20:06:09.245Z,60.99
2023-03-17T20:08:35.392Z,61.07
2023-03-17T20:11:01.581Z,60.94
2023-03-17T20:13:27.714Z,60.86
2023-03-17T20:15:53.829Z,60.87
2023-03-17T20:18:19.995Z,61.05
2023-03-17T20:20:46.157Z,61.04
2023-03-17T20:23:12.264Z,61.09
2023-03-17T20:25:38.392Z,61.02
2023-03-17T20:28:05.678Z,60.84
2023-03-17T20:30:31.931Z,60.80
2023-03-17T20:32:58.250Z,60.91
2023-03-17T20:35:24.425Z,60.95
2023-03-17T20:37:50.526Z,60.79
2023-03-17T20:40:16.671Z,60.98
2023-03-17T20:42:42.818Z,60.72
2023-03-17T20:45:09.006Z,60.96
2023-03-17T20:47:35.173Z,60.83
2023-03-17T20:50:01.293Z,60.79
2023-03-17T20:52:29.992Z,60.96
2023-03-17T20:54:56.408Z,60.79
2023-03-17T20:57:22.575Z,61.01
2023-03-17T20:59:48.772Z,61.06
2023-03-17T21:02:14.945Z,60.96
2023-03-17T21:04:41.062Z,60.96
2023-03-17T21:07:07.178Z,61.00
2023-03-17T21:09:33.344Z,61.00
2023-03-17T21:11:59.544Z,60.86
2023-03-17T21:14:25.665Z,60.90
2023-03-17T21:16:51.815Z,61.10
2023-03-17T21:19:17.966Z,61.03
2023-03-17T21:21:44.080Z,60.98
2023-03-17T21:24:10.246Z,60.91
2023-03-17T21:26:36.394Z,60.96
2023-03-17T21:29:02.524Z,60.98
2023-03-17T21:31:28.680Z,60.95
2023-03-17T21:33:54.836Z,60.83
2023-03-17T21:36:20.943Z,60.91
2023-03-17T21:38:47.051Z,60.85
2023-03-17T21:41:13.180Z,60.81
2023-03-17T21:43:39.296Z,60.88
2023-03-17T21:46:05.618Z,60.80
2023-03-17T21:48:31.793Z,60.86
2023-03-17T21:50:57.896Z,60.96
2023-03-17T21:53:24.032Z,60.68
2023-03-17T21:55:50.209Z,60.75
2023-03-17T21:58:16.346Z,60.88
2023-03-17T22:00:45.499Z,60.88
2023-03-17T22:03:12.262Z,60.75
2023-03-17T22:05:38.401Z,60.78
2023-03-17T22:08:04.556Z,60.81
2023-03-17T22:10:30.943Z,60.81
2023-03-17T22:12:57.176Z,60.88
2023-03-17T22:15:23.314Z,60.68
2023-03-17T22:17:49.470Z,60.54
2023-03-17T22:20:15.612Z,60.84
2023-03-17T22:22:41.824Z,60.72
2023-03-17T22:25:07.936Z,60.98
2023-03-17T22:27:34.111Z,60.83
2023-03-17T22:30:00.282Z,60.92
2023-03-17T22:32:26.467Z,60.78
2023-03-17T22:34:52.560Z,60.79
2023-03-17T22:37:18.705Z,60.66
2023-03-17T22:39:44.807Z,60.98
2023-03-17T22:42:10.904Z,60.69
2023-03-17T22:44:37.024Z,60.84
2023-03-17T22:47:03.127Z,60.87
2023-03-17T22:49:29.250Z,60.67
2023-03-17T22:54:45.571Z,61.13
2023-03-17T22:57:11.768Z,60.85
2023-03-17T22:59:37.883Z,61.01
2023-03-17T23:02:04.004Z,60.93
2023-03-17T23:04:30.106Z,60.94
2023-03-17T23:06:56.207Z,60.94
2023-03-17T23:09:22.330Z,60.71
2023-03-17T23:11:48.454Z,60.95
2023-03-17T23:14:14.549Z,60.94
2023-03-17T23:16:40.798Z,60.68
2023-03-17T23:19:06.958Z,61.04
2023-03-17T23:21:33.064Z,60.91
2023-03-17T23:23:59.213Z,61.01
2023-03-17T23:26:25.382Z,60.91
2023-03-17T23:28:51.490Z,60.86
2023-03-17T23:31:17.968Z,60.81
2023-03-17T23:33:44.131Z,60.96
2023-03-17T23:36:10.245Z,60.62
2023-03-17T23:38:36.426Z,60.81
2023-03-17T23:41:02.551Z,60.90
2023-03-17T23:43:28.664Z,60.78
2023-03-17T23:45:54.845Z,60.81
2023-03-17T23:48:20.993Z,60.79
2023-03-17T23:50:47.168Z,60.80
2023-03-17T23:53:13.290Z,60.85
2023-03-17T23:55:39.413Z,60.73
2023-03-17T23:58:05.527Z,60.93
